Boynton Beach, FL (33435)

3:36 PM EDT on July 05, 2015 (GMT -0400)
Forest Park | | Change Station
CLOSE
Current Station
Personal Weather Station
Location: Boynton Beach, FL
Elevation: 15 ft
Nearby Weather Stations

Elev 15 ft 26.52 °N, 80.07 °W | Updated 20 seconds ago

Partly Cloudy
Partly Cloudy
94.1 °F
Feels Like 112 °F
N
6.9
Wind Variable Wind from SE
Gusts 6.9 mph

Today
High -- | Low -- °F
--% Chance of Precip.
Yesterday
High -- | Low -- °F
Precip. -- in
6:32 AM 8:17 PM
Waning Gibbous, 82% visible
Pressure 30.16 in
Visibility 10.0 miles
Clouds Scattered Clouds 3600 ft
Scattered Clouds 20000 ft
Heat Index 112 °F
Dew Point 79 °F
Humidity 62%
Rainfall 0.00 in
Snow Depth Not available.
UV 11 out of 12
Pollen 4.50 out of 12
Air Quality Not available.
Flu Activity Not available.
METAR KPBI 051853Z 13012G19KT 10SM SCT036 SCT200 32/23 A3016 RMK AO2 SLP211 T03220228 $

More Conditions Fewer Conditions

Pressure 30.16 in
Visibility 10.0 miles
Clouds Scattered Clouds 3600 ft
Scattered Clouds 20000 ft
Heat Index 112 °F
Dew Point 79 °F
Humidity 62%
Rainfall 0.00 in
Snow Depth Not available.
UV 11 out of 12
Pollen 4.50 out of 12
Air Quality Not available.
Flu Activity Not available.
METAR KPBI 051853Z 13012G19KT 10SM SCT036 SCT200 32/23 A3016 RMK AO2 SLP211 T03220228 $

More Conditions Fewer Conditions

10-Day Weather Forecast

×

Almanac

Astronomy

Jul. 05, 2015 Rise Set
Actual Time
Civil Twilight
Nautical Twilight
Astronomical Twilight
Moon
Length of Visible Light
Length of Day
Tomorrow will be .
, % of the Moon is Illuminated

Today's Extremes

State Highs State Lows

Community

WunderPhotos

Upload Photos

1,835,358 photos uploaded!

WunderBlogs® & News

Nearby

Air Quality

  Air Quality AQ Index Pollutant
Not available.

Snow Depth

Station Depth Elevation

Earthquake Activity

City Distance Mag. Time & Date
Minimum magnitude displayed is 2.5.

Coastal Water Temperatures

Place Temperature

Stations

Nearby Weather Stations

Station Location Temp. Windchill Dew Point Humidity Wind Precip. Elev Updated Type